Taranto — V2AK2 — position and weather

sailwx.info

Track history (hours):
 
Tides and Currents Weather Stations Pressure Air Temp Water Temp Dewpoint Dewpoint Depression Visibility Wind Speed Wind Dir Waves Ship Positions

Taranto

Last reported at 2014-Nov-22 08:32 UTC. Time now 2014-Nov-22 08:54 UTC.
Position N 56°06' W 003°07'.

Length 88 m; draft 4.7 m.

Type: Cargo ship. MMSI: 304010614.

Date/timePositionNaut miles runAvg speedWind from/ knotsBaromVisibWave heightAir tempDewpointWater temp
2014-Nov-22 08:32N 56°06' W 003°07'0 0.1
2014-Nov-22 07:32N 56°06' W 003°07'0 0.0
2014-Nov-22 06:32N 56°06' W 003°07'0 0.0
2014-Nov-22 05:32N 56°06' W 003°07'0 0.0
2014-Nov-22 04:32N 56°06' W 003°07'0 0.1
2014-Nov-22 03:20N 56°06' W 003°07'0 0.1
2014-Nov-22 02:23N 56°06' W 003°07'0 0.0
2014-Nov-22 01:26N 56°06' W 003°07'0 0.0
2014-Nov-22 00:26N 56°06' W 003°07'0 0.0
2014-Nov-21 23:29N 56°06' W 003°07'0 0.0
2014-Nov-21 22:29N 56°06' W 003°07'0 0.0
2014-Nov-21 21:26N 56°06' W 003°07'0 0.0
2014-Nov-21 20:32N 56°06' W 003°07'0 0.1
2014-Nov-21 19:32N 56°06' W 003°07'0 0.0
2014-Nov-21 18:29N 56°06' W 003°07'0 0.1
2014-Nov-21 17:32N 56°06' W 003°07'0 0.1
2014-Nov-21 16:32N 56°06' W 003°07'0 0.0
2014-Nov-21 15:32N 56°06' W 003°07'0 0.1
2014-Nov-21 14:23N 56°06' W 003°07'0 0.0
2014-Nov-21 13:23N 56°06' W 003°07'0 0.0
2014-Nov-21 12:26N 56°06' W 003°07'0 0.0
2014-Nov-21 11:26N 56°06' W 003°07'0 0.0
2014-Nov-21 10:26N 56°05' W 003°07'0 0.0
2014-Nov-21 09:29N 56°05' W 003°07'0 0.0
2014-Nov-21 08:29N 56°05' W 003°07'0 0.1
2014-Nov-21 07:29N 56°06' W 003°07'0 0.0
2014-Nov-21 06:32N 56°06' W 003°07'0 0.0
2014-Nov-21 05:32N 56°06' W 003°07'0 0.0
2014-Nov-21 04:32N 56°06' W 003°07'0 0.0
2014-Nov-21 03:32N 56°06' W 003°07'0 0.0
2014-Nov-21 02:32N 56°05' W 003°07'0 0.1
2014-Nov-21 01:32N 56°05' W 003°07'0 0.0
2014-Nov-21 00:32N 56°05' W 003°07'0 0.0
2014-Nov-20 23:23N 56°05' W 003°07'0 0.0
2014-Nov-20 22:26N 56°05' W 003°07'0 0.0
2014-Nov-20 21:26N 56°05' W 003°07'0 0.1
2014-Nov-20 20:30N 56°05' W 003°07'8 7.9
2014-Nov-20 19:33N 56°06' W 002°54'9 9.0
2014-Nov-20 18:33N 56°06' W 002°37'10 9.7
2014-Nov-20 17:33N 56°02' W 002°22'11 9.5
2014-Nov-20 16:22N 55°57' W 002°04'70 9.0
2014-Nov-20 08:33N 55°00' W 000°49'1010.4
2014-Nov-20 07:33N 54°51' W 000°40'1210.2
2014-Nov-20 06:22N 54°41' W 000°29'810.0
2014-Nov-20 05:33N 54°34' W 000°22'9 9.5
2014-Nov-20 04:33N 54°26' W 000°14'9 8.7
2014-Nov-20 03:34N 54°18' W 000°07'8 8.2
2014-Nov-20 02:33N 54°12' E 000°01'8 8.0
2014-Nov-20 01:33N 54°05' E 000°08'8 8.3
2014-Nov-20 00:33N 53°57' E 000°15'9 8.8
2014-Nov-19 23:33N 53°50' E 000°23'56 9.3
2014-Nov-19 17:33N 53°07' E 001°22'7 7.5
2014-Nov-19 16:33N 53°01' E 001°29'8 7.7
2014-Nov-19 15:33N 52°55' E 001°38'10 9.1
2014-Nov-19 14:26N 52°48' E 001°50'910.3
2014-Nov-19 13:33N 52°41' E 001°59'88 9.5
2014-Nov-19 04:19N 51°31' E 003°27'7 9.6
2014-Nov-19 03:33N 51°26' E 003°35'1110.9
2014-Nov-19 02:33N 51°22' E 003°52'8 8.1
2014-Nov-19 01:33N 51°24' E 004°04'8 7.9
2014-Nov-19 00:33N 51°21' E 004°16'1 0.8
2014-Nov-18 23:33N 51°21' E 004°17'1 1.0
2014-Nov-18 22:24N 51°20' E 004°18'4 4.8
2014-Nov-18 21:33N 51°16' E 004°21'2 1.8
2014-Nov-18 20:32N 51°15' E 004°23'0 0.0
2014-Nov-18 19:29N 51°15' E 004°23'0 0.0
2014-Nov-18 18:32N 51°15' E 004°23'0 0.0
2014-Nov-18 17:32N 51°15' E 004°23'0 0.0
2014-Nov-18 16:32N 51°15' E 004°23'0 0.0
2014-Nov-18 15:29N 51°15' E 004°23'0 0.0
2014-Nov-18 14:32N 51°15' E 004°23'0 0.0
2014-Nov-18 13:32N 51°15' E 004°23'0 0.0
2014-Nov-18 12:32N 51°15' E 004°23'0 0.0
2014-Nov-18 11:29N 51°15' E 004°23'0 0.0
2014-Nov-18 10:29N 51°15' E 004°23'0 0.0
2014-Nov-18 09:32N 51°15' E 004°23'0 0.0
2014-Nov-18 08:32N 51°15' E 004°23'0 0.0
2014-Nov-18 07:32N 51°15' E 004°23'0 0.0
2014-Nov-18 06:32N 51°15' E 004°23'0 0.0
2014-Nov-18 05:32N 51°15' E 004°23'0 0.0
2014-Nov-18 04:32N 51°15' E 004°23'0 0.0
2014-Nov-18 03:29N 51°15' E 004°23'0 0.0
2014-Nov-18 02:32N 51°15' E 004°23'0 0.0
2014-Nov-18 01:32N 51°15' E 004°23'0 0.0
2014-Nov-18 00:32N 51°15' E 004°23'0 0.0
2014-Nov-17 23:32N 51°15' E 004°23'0 0.0
2014-Nov-17 22:32N 51°15' E 004°23'0 0.0
2014-Nov-17 21:32N 51°15' E 004°23'0 0.0
2014-Nov-17 20:32N 51°15' E 004°23'0 0.0
2014-Nov-17 19:33N 51°15' E 004°23'3 2.6
2014-Nov-17 18:33N 51°17' E 004°20'1 0.6
2014-Nov-17 17:33N 51°17' E 004°19'2 1.6
2014-Nov-17 16:33N 51°16' E 004°17'2 2.4
2014-Nov-17 15:33N 51°17' E 004°13'0 0.1
2014-Nov-17 14:33N 51°17' E 004°13'0 0.0
2014-Nov-17 13:33N 51°17' E 004°13'0 0.0
2014-Nov-17 12:06N 51°17' E 004°13'0 0.0
2014-Nov-17 11:30N 51°17' E 004°13'0 0.0
2014-Nov-17 10:27N 51°17' E 004°13'0 0.0
2014-Nov-17 09:33N 51°17' E 004°13'0 0.0
2014-Nov-17 08:27N 51°17' E 004°13'0 0.0
2014-Nov-17 07:12N 51°17' E 004°13'0 0.0
2014-Nov-17 06:12N 51°17' E 004°13'0 0.0
2014-Nov-17 03:30N 51°17' E 004°13'0 0.0
2014-Nov-17 02:30N 51°17' E 004°13'0 0.0
2014-Nov-17 01:33N 51°17' E 004°13'0 0.0
2014-Nov-17 00:15N 51°17' E 004°13'0 0.0
2014-Nov-16 23:24N 51°17' E 004°13'0 0.0
2014-Nov-16 22:24N 51°17' E 004°13'0 0.0
2014-Nov-16 20:18N 51°17' E 004°13'0 0.0
2014-Nov-16 19:33N 51°17' E 004°13'0 0.0
2014-Nov-16 18:30N 51°17' E 004°13'0 0.0
2014-Nov-16 16:09N 51°17' E 004°13'0 0.0
2014-Nov-16 15:30N 51°17' E 004°13'0 0.0
2014-Nov-16 14:33N 51°17' E 004°13'0 0.0
2014-Nov-16 13:33N 51°17' E 004°13'0 0.0
2014-Nov-16 12:33N 51°17' E 004°13'0 0.0
2014-Nov-16 11:30N 51°17' E 004°13'0 0.0
2014-Nov-16 10:33N 51°17' E 004°13'0 0.0
2014-Nov-16 09:30N 51°17' E 004°13'0 0.0
2014-Nov-16 08:30N 51°17' E 004°13'0 0.0
2014-Nov-16 07:24N 51°17' E 004°13'0 0.0
2014-Nov-16 06:30N 51°17' E 004°13'0 0.0
2014-Nov-16 05:33N 51°17' E 004°13'0 0.0
2014-Nov-16 04:27N 51°17' E 004°13'0 0.0
2014-Nov-16 03:21N 51°17' E 004°13'0 0.0
2014-Nov-16 02:24N 51°17' E 004°13'0 0.0
2014-Nov-16 01:27N 51°17' E 004°13'0 0.0
2014-Nov-16 00:30N 51°17' E 004°13'2 2.4
2014-Nov-15 23:29N 51°16' E 004°17'0 0.1
2014-Nov-15 22:34N 51°16' E 004°17'4 4.4
2014-Nov-15 21:34N 51°20' E 004°16'6 5.6
2014-Nov-15 20:33N 51°22' E 004°08'7 6.7
2014-Nov-15 19:34N 51°25' E 003°58'9 8.6
2014-Nov-15 18:33N 51°21' E 003°46'9 9.5
2014-Nov-15 17:33N 51°27' E 003°33'20 9.5
2014-Nov-15 15:26N 51°44' E 003°17'13 0.3
2014-Nov-13 22:31N 51°54' E 003°31'0 0.0
2014-Nov-13 21:31N 51°54' E 003°31'  
Track history (hours):
 
Tides and Currents Weather Stations Pressure Air Temp Water Temp Dewpoint Dewpoint Depression Visibility Wind Speed Wind Dir Waves Ship Positions

Taranto

Last reported at 2014-Nov-22 08:32 UTC. Time now 2014-Nov-22 08:54 UTC.
Position N 56°06' W 003°07'.

Length 88 m; draft 4.7 m.

Type: Cargo ship. MMSI: 304010614.

Date/timePositionNaut miles runAvg speedWind from/ knotsBaromVisibWave heightAir tempDewpointWater temp
2014-Nov-22 08:32N 56°06' W 003°07'0 0.1
2014-Nov-22 07:32N 56°06' W 003°07'0 0.0
2014-Nov-22 06:32N 56°06' W 003°07'0 0.0
2014-Nov-22 05:32N 56°06' W 003°07'0 0.0
2014-Nov-22 04:32N 56°06' W 003°07'0 0.1
2014-Nov-22 03:20N 56°06' W 003°07'0 0.1
2014-Nov-22 02:23N 56°06' W 003°07'0 0.0
2014-Nov-22 01:26N 56°06' W 003°07'0 0.0
2014-Nov-22 00:26N 56°06' W 003°07'0 0.0
2014-Nov-21 23:29N 56°06' W 003°07'0 0.0
2014-Nov-21 22:29N 56°06' W 003°07'0 0.0
2014-Nov-21 21:26N 56°06' W 003°07'0 0.0
2014-Nov-21 20:32N 56°06' W 003°07'0 0.1
2014-Nov-21 19:32N 56°06' W 003°07'0 0.0
2014-Nov-21 18:29N 56°06' W 003°07'0 0.1
2014-Nov-21 17:32N 56°06' W 003°07'0 0.1
2014-Nov-21 16:32N 56°06' W 003°07'0 0.0
2014-Nov-21 15:32N 56°06' W 003°07'0 0.1
2014-Nov-21 14:23N 56°06' W 003°07'0 0.0
2014-Nov-21 13:23N 56°06' W 003°07'0 0.0
2014-Nov-21 12:26N 56°06' W 003°07'0 0.0
2014-Nov-21 11:26N 56°06' W 003°07'0 0.0
2014-Nov-21 10:26N 56°05' W 003°07'0 0.0
2014-Nov-21 09:29N 56°05' W 003°07'0 0.0
2014-Nov-21 08:29N 56°05' W 003°07'0 0.1
2014-Nov-21 07:29N 56°06' W 003°07'0 0.0
2014-Nov-21 06:32N 56°06' W 003°07'0 0.0
2014-Nov-21 05:32N 56°06' W 003°07'0 0.0
2014-Nov-21 04:32N 56°06' W 003°07'0 0.0
2014-Nov-21 03:32N 56°06' W 003°07'0 0.0
2014-Nov-21 02:32N 56°05' W 003°07'0 0.1
2014-Nov-21 01:32N 56°05' W 003°07'0 0.0
2014-Nov-21 00:32N 56°05' W 003°07'0 0.0
2014-Nov-20 23:23N 56°05' W 003°07'0 0.0
2014-Nov-20 22:26N 56°05' W 003°07'0 0.0
2014-Nov-20 21:26N 56°05' W 003°07'0 0.1
2014-Nov-20 20:30N 56°05' W 003°07'8 7.9
2014-Nov-20 19:33N 56°06' W 002°54'9 9.0
2014-Nov-20 18:33N 56°06' W 002°37'10 9.7
2014-Nov-20 17:33N 56°02' W 002°22'11 9.5
2014-Nov-20 16:22N 55°57' W 002°04'70 9.0
2014-Nov-20 08:33N 55°00' W 000°49'1010.4
2014-Nov-20 07:33N 54°51' W 000°40'1210.2
2014-Nov-20 06:22N 54°41' W 000°29'810.0
2014-Nov-20 05:33N 54°34' W 000°22'9 9.5
2014-Nov-20 04:33N 54°26' W 000°14'9 8.7
2014-Nov-20 03:34N 54°18' W 000°07'8 8.2
2014-Nov-20 02:33N 54°12' E 000°01'8 8.0
2014-Nov-20 01:33N 54°05' E 000°08'8 8.3
2014-Nov-20 00:33N 53°57' E 000°15'9 8.8
2014-Nov-19 23:33N 53°50' E 000°23'56 9.3
2014-Nov-19 17:33N 53°07' E 001°22'7 7.5
2014-Nov-19 16:33N 53°01' E 001°29'8 7.7
2014-Nov-19 15:33N 52°55' E 001°38'10 9.1
2014-Nov-19 14:26N 52°48' E 001°50'910.3
2014-Nov-19 13:33N 52°41' E 001°59'88 9.5
2014-Nov-19 04:19N 51°31' E 003°27'7 9.6
2014-Nov-19 03:33N 51°26' E 003°35'1110.9
2014-Nov-19 02:33N 51°22' E 003°52'8 8.1
2014-Nov-19 01:33N 51°24' E 004°04'8 7.9
2014-Nov-19 00:33N 51°21' E 004°16'1 0.8
2014-Nov-18 23:33N 51°21' E 004°17'1 1.0
2014-Nov-18 22:24N 51°20' E 004°18'4 4.8
2014-Nov-18 21:33N 51°16' E 004°21'2 1.8
2014-Nov-18 20:32N 51°15' E 004°23'0 0.0
2014-Nov-18 19:29N 51°15' E 004°23'0 0.0
2014-Nov-18 18:32N 51°15' E 004°23'0 0.0
2014-Nov-18 17:32N 51°15' E 004°23'0 0.0
2014-Nov-18 16:32N 51°15' E 004°23'0 0.0
2014-Nov-18 15:29N 51°15' E 004°23'0 0.0
2014-Nov-18 14:32N 51°15' E 004°23'0 0.0
2014-Nov-18 13:32N 51°15' E 004°23'0 0.0
2014-Nov-18 12:32N 51°15' E 004°23'0 0.0
2014-Nov-18 11:29N 51°15' E 004°23'0 0.0
2014-Nov-18 10:29N 51°15' E 004°23'0 0.0
2014-Nov-18 09:32N 51°15' E 004°23'0 0.0
2014-Nov-18 08:32N 51°15' E 004°23'0 0.0
2014-Nov-18 07:32N 51°15' E 004°23'0 0.0
2014-Nov-18 06:32N 51°15' E 004°23'0 0.0
2014-Nov-18 05:32N 51°15' E 004°23'0 0.0
2014-Nov-18 04:32N 51°15' E 004°23'0 0.0
2014-Nov-18 03:29N 51°15' E 004°23'0 0.0
2014-Nov-18 02:32N 51°15' E 004°23'0 0.0
2014-Nov-18 01:32N 51°15' E 004°23'0 0.0
2014-Nov-18 00:32N 51°15' E 004°23'0 0.0
2014-Nov-17 23:32N 51°15' E 004°23'0 0.0
2014-Nov-17 22:32N 51°15' E 004°23'0 0.0
2014-Nov-17 21:32N 51°15' E 004°23'0 0.0
2014-Nov-17 20:32N 51°15' E 004°23'0 0.0
2014-Nov-17 19:33N 51°15' E 004°23'3 2.6
2014-Nov-17 18:33N 51°17' E 004°20'1 0.6
2014-Nov-17 17:33N 51°17' E 004°19'2 1.6
2014-Nov-17 16:33N 51°16' E 004°17'2 2.4
2014-Nov-17 15:33N 51°17' E 004°13'0 0.1
2014-Nov-17 14:33N 51°17' E 004°13'0 0.0
2014-Nov-17 13:33N 51°17' E 004°13'0 0.0
2014-Nov-17 12:06N 51°17' E 004°13'0 0.0
2014-Nov-17 11:30N 51°17' E 004°13'0 0.0
2014-Nov-17 10:27N 51°17' E 004°13'0 0.0
2014-Nov-17 09:33N 51°17' E 004°13'0 0.0
2014-Nov-17 08:27N 51°17' E 004°13'0 0.0
2014-Nov-17 07:12N 51°17' E 004°13'0 0.0
2014-Nov-17 06:12N 51°17' E 004°13'0 0.0
2014-Nov-17 03:30N 51°17' E 004°13'0 0.0
2014-Nov-17 02:30N 51°17' E 004°13'0 0.0
2014-Nov-17 01:33N 51°17' E 004°13'0 0.0
2014-Nov-17 00:15N 51°17' E 004°13'0 0.0
2014-Nov-16 23:24N 51°17' E 004°13'0 0.0
2014-Nov-16 22:24N 51°17' E 004°13'0 0.0
2014-Nov-16 20:18N 51°17' E 004°13'0 0.0
2014-Nov-16 19:33N 51°17' E 004°13'0 0.0
2014-Nov-16 18:30N 51°17' E 004°13'0 0.0
2014-Nov-16 16:09N 51°17' E 004°13'0 0.0
2014-Nov-16 15:30N 51°17' E 004°13'0 0.0
2014-Nov-16 14:33N 51°17' E 004°13'0 0.0
2014-Nov-16 13:33N 51°17' E 004°13'0 0.0
2014-Nov-16 12:33N 51°17' E 004°13'0 0.0
2014-Nov-16 11:30N 51°17' E 004°13'0 0.0
2014-Nov-16 10:33N 51°17' E 004°13'0 0.0
2014-Nov-16 09:30N 51°17' E 004°13'0 0.0
2014-Nov-16 08:30N 51°17' E 004°13'0 0.0
2014-Nov-16 07:24N 51°17' E 004°13'0 0.0
2014-Nov-16 06:30N 51°17' E 004°13'0 0.0
2014-Nov-16 05:33N 51°17' E 004°13'0 0.0
2014-Nov-16 04:27N 51°17' E 004°13'0 0.0
2014-Nov-16 03:21N 51°17' E 004°13'0 0.0
2014-Nov-16 02:24N 51°17' E 004°13'0 0.0
2014-Nov-16 01:27N 51°17' E 004°13'0 0.0
2014-Nov-16 00:30N 51°17' E 004°13'2 2.4
2014-Nov-15 23:29N 51°16' E 004°17'0 0.1
2014-Nov-15 22:34N 51°16' E 004°17'4 4.4
2014-Nov-15 21:34N 51°20' E 004°16'6 5.6
2014-Nov-15 20:33N 51°22' E 004°08'7 6.7
2014-Nov-15 19:34N 51°25' E 003°58'9 8.6
2014-Nov-15 18:33N 51°21' E 003°46'9 9.5
2014-Nov-15 17:33N 51°27' E 003°33'20 9.5
2014-Nov-15 15:26N 51°44' E 003°17'13 0.3
2014-Nov-13 22:31N 51°54' E 003°31'0 0.0
2014-Nov-13 21:31N 51°54' E 003°31'  

Dump ship's entire track history